Hovedside
METAR-TAF:

METAR-TAF

Lufthavner :

Kristiansund lufthavn. Kvernberget

Kristiansund, Norge

breddegrad: 63-07N, lengdegrad: 007-50E, høyde over havet: 6 m

Gjeldene værobservasjon

Denne rapporten ble laget for 44 minutter siden, klokken 14:20 UTC
Vind 10 kt fra Nord-nordøst
Temperatur 21°C
Luftfuktighet 49%
Trykk 1018 hPa
Sikt 10 km eller mer
ingen skyer under 1500 m og ingen bygeskyer

METAR: ENKB 191420Z 03010KT CAVOK 21/10 Q1018 RMK WIND 745FT 03009KT

Tid: 17:04 (15:04 UTC)

Varsel

Denne rapporten ble laget for 1 time og 4 minutter siden, klokken 14:00 UTC
Varsel gyldig fra 19. klokken 15 UTC til 19. klokken 22 UTC
Vind 8 kt fra Nordøst
Sikt 10 km eller mer
ingen skyer under 1500 m og ingen bygeskyer

TAF: ENKB 191400Z 1915/1922 05008KT CAVOK

Værobservasjoner og værvarsel for over 4000 flyplasser (METAR- og TAF-rapporter).

Tilgjengelige stasjoner er representert av de røde og gule prikkene på kartet.

Hold musepekeren over prikken for å se navnet på stasjonen.

Klikk så for å se værobservasjoner og -varsler.

For å forandre kartet kan du klikke på den grønne knappen med svart kryss for å zoome inn, på den grønne knappen med strek for å zoome ut, eller på de grønne pilene for å se tilstøtende kart.


METAR-TAF: